createdAt,value
2023-01-06T00:00:05.516Z,10.12
2023-01-06T00:02:33.006Z,10.09
2023-01-06T00:05:00.588Z,10.08
2023-01-06T00:07:28.165Z,10.07
2023-01-06T00:09:55.777Z,10.04
2023-01-06T00:12:23.329Z,10.03
2023-01-06T00:14:52.230Z,10.02
2023-01-06T00:17:19.809Z,10.00
2023-01-06T00:19:47.370Z,9.97
2023-01-06T00:22:14.892Z,9.98
2023-01-06T00:24:42.616Z,9.99
2023-01-06T00:27:10.176Z,10.00
2023-01-06T00:29:37.727Z,10.02
2023-01-06T00:32:06.992Z,9.95
2023-01-06T00:34:34.578Z,9.93
2023-01-06T00:37:02.108Z,9.95
2023-01-06T00:39:29.747Z,9.94
2023-01-06T00:42:06.787Z,9.95
2023-01-06T00:44:35.361Z,9.99
2023-01-06T00:47:03.432Z,9.99
2023-01-06T00:49:32.326Z,9.99
2023-01-06T00:51:59.821Z,9.95
2023-01-06T00:54:27.422Z,9.95
2023-01-06T00:56:55.765Z,9.98
2023-01-06T00:59:23.801Z,10.00
2023-01-06T01:01:52.526Z,9.97
2023-01-06T01:04:20.440Z,9.94
2023-01-06T01:06:49.716Z,9.93
2023-01-06T01:09:19.501Z,9.95
2023-01-06T01:12:04.700Z,9.96
2023-01-06T01:14:32.272Z,9.94
2023-01-06T01:16:59.752Z,9.94
2023-01-06T01:19:27.704Z,9.97
2023-01-06T01:21:56.666Z,9.95
2023-01-06T01:24:24.342Z,9.96
2023-01-06T01:26:51.807Z,9.96
2023-01-06T01:29:20.074Z,9.95
2023-01-06T01:31:47.814Z,9.95
2023-01-06T01:34:16.088Z,9.94
2023-01-06T01:36:44.346Z,9.94
2023-01-06T01:39:13.910Z,9.94
2023-01-06T01:41:41.545Z,9.95
2023-01-06T01:44:27.657Z,9.94
2023-01-06T01:46:55.475Z,9.94
2023-01-06T01:49:25.227Z,9.96
2023-01-06T01:51:54.774Z,9.94
2023-01-06T01:54:26.201Z,9.95
2023-01-06T01:56:56.407Z,9.97
2023-01-06T01:59:25.928Z,9.97
2023-01-06T02:01:53.682Z,9.97
2023-01-06T02:04:22.184Z,9.98
2023-01-06T02:06:50.613Z,9.99
2023-01-06T02:09:19.448Z,9.95
2023-01-06T02:11:51.202Z,9.96
2023-01-06T02:14:20.028Z,9.96
2023-01-06T02:16:54.220Z,9.94
2023-01-06T02:19:36.613Z,9.93
2023-01-06T02:22:16.928Z,9.92
2023-01-06T02:25:10.483Z,9.91
2023-01-06T02:28:06.149Z,9.93
2023-01-06T02:30:54.340Z,9.92
2023-01-06T02:33:27.591Z,9.91
2023-01-06T02:36:03.233Z,9.91
2023-01-06T02:38:36.785Z,9.90
2023-01-06T02:41:11.038Z,9.91
2023-01-06T02:43:44.673Z,9.89
2023-01-06T02:46:17.098Z,9.90
2023-01-06T02:48:50.970Z,9.92
2023-01-06T02:51:22.351Z,9.92
2023-01-06T02:53:53.181Z,9.91
2023-01-06T02:56:22.999Z,9.92
2023-01-06T02:58:54.953Z,9.90
2023-01-06T03:01:25.368Z,9.89
2023-01-06T03:03:55.218Z,9.90
2023-01-06T03:06:26.328Z,9.89
2023-01-06T03:08:55.494Z,9.89
2023-01-06T03:11:23.831Z,9.88
2023-01-06T03:13:54.377Z,9.89
2023-01-06T03:16:22.304Z,9.88
2023-01-06T03:18:50.761Z,9.87
2023-01-06T03:21:21.928Z,9.88
2023-01-06T03:23:49.441Z,9.89
2023-01-06T03:26:17.116Z,9.89
2023-01-06T03:28:44.698Z,9.89
2023-01-06T03:31:22.736Z,9.89
2023-01-06T03:33:55.912Z,9.89
2023-01-06T03:36:30.099Z,9.89
2023-01-06T03:39:01.369Z,9.90
2023-01-06T03:41:47.416Z,9.92
2023-01-06T03:44:19.833Z,9.92
2023-01-06T03:46:52.308Z,9.92
2023-01-06T03:49:22.724Z,9.92
2023-01-06T03:51:55.742Z,9.92
2023-01-06T03:54:30.843Z,9.93
2023-01-06T03:57:02.868Z,9.90
2023-01-06T03:59:33.450Z,9.91
2023-01-06T04:02:01.779Z,9.91
2023-01-06T04:04:29.366Z,9.92
2023-01-06T04:06:58.248Z,9.93
2023-01-06T04:09:25.804Z,9.94
2023-01-06T04:12:10.894Z,9.95
2023-01-06T04:14:38.438Z,9.95
2023-01-06T04:17:05.995Z,9.96
2023-01-06T04:19:33.494Z,9.97
2023-01-06T04:22:02.360Z,9.98
2023-01-06T04:24:30.462Z,9.96
2023-01-06T04:26:58.005Z,9.97
2023-01-06T04:29:25.528Z,9.97
2023-01-06T04:31:53.106Z,9.94
2023-01-06T04:34:20.710Z,9.92
2023-01-06T04:36:48.224Z,9.93
2023-01-06T04:39:17.052Z,9.91
2023-01-06T04:41:44.562Z,9.91
2023-01-06T04:44:12.091Z,9.89
2023-01-06T04:46:39.657Z,9.89
2023-01-06T04:49:07.169Z,9.90
2023-01-06T04:51:35.018Z,9.87
2023-01-06T04:54:02.550Z,9.89
2023-01-06T04:56:31.472Z,9.90
2023-01-06T04:58:59.499Z,9.89
2023-01-06T05:01:27.630Z,9.90
2023-01-06T05:03:55.536Z,9.90
2023-01-06T05:06:23.057Z,9.90
2023-01-06T05:08:50.581Z,9.89
2023-01-06T05:11:18.991Z,9.90
2023-01-06T05:13:47.894Z,9.89
2023-01-06T05:16:17.463Z,9.89
2023-01-06T05:18:45.341Z,9.90
2023-01-06T05:21:12.954Z,9.89
2023-01-06T05:23:41.201Z,9.87
2023-01-06T05:26:10.134Z,9.87
2023-01-06T05:28:37.697Z,9.88
2023-01-06T05:31:06.805Z,9.89
2023-01-06T05:33:34.867Z,9.91
2023-01-06T05:36:03.318Z,9.90
2023-01-06T05:38:32.345Z,9.90
2023-01-06T05:41:01.857Z,9.88
2023-01-06T05:43:29.779Z,9.87
2023-01-06T05:45:57.468Z,9.86
2023-01-06T05:48:26.968Z,9.86
2023-01-06T05:50:54.646Z,9.86
2023-01-06T05:53:22.132Z,9.87
2023-01-06T05:55:49.640Z,9.85
2023-01-06T05:58:17.181Z,9.87
2023-01-06T06:00:44.677Z,9.84
2023-01-06T06:03:12.212Z,9.84
2023-01-06T06:05:41.115Z,9.84
2023-01-06T06:08:09.330Z,9.80
2023-01-06T06:10:36.955Z,9.80
2023-01-06T06:13:04.550Z,9.82
2023-01-06T06:15:32.070Z,9.82
2023-01-06T06:17:59.562Z,9.82
2023-01-06T06:20:27.085Z,9.83
2023-01-06T06:22:56.031Z,9.84
2023-01-06T06:25:23.588Z,9.85
2023-01-06T06:27:51.092Z,9.86
2023-01-06T06:30:18.773Z,9.85
2023-01-06T06:32:46.294Z,9.85
2023-01-06T06:35:13.795Z,9.84
2023-01-06T06:37:41.364Z,9.82
2023-01-06T06:40:11.096Z,9.82
2023-01-06T06:42:38.631Z,9.77
2023-01-06T06:45:06.689Z,9.72
2023-01-06T06:47:34.158Z,9.68
2023-01-06T06:50:01.748Z,9.68
2023-01-06T06:52:29.315Z,9.67
2023-01-06T06:54:56.808Z,9.62
2023-01-06T06:57:25.745Z,9.60
2023-01-06T06:59:53.267Z,9.60
2023-01-06T07:02:20.917Z,9.58
2023-01-06T07:04:48.750Z,9.53
2023-01-06T07:07:16.373Z,9.51
2023-01-06T07:09:43.897Z,9.50
2023-01-06T07:12:11.428Z,9.52
2023-01-06T07:14:40.292Z,9.52
2023-01-06T07:17:07.826Z,9.53
2023-01-06T07:19:35.467Z,9.52
2023-01-06T07:22:02.969Z,9.55
2023-01-06T07:24:30.588Z,9.53
2023-01-06T07:26:58.096Z,9.58
2023-01-06T07:29:25.811Z,9.56
2023-01-06T07:31:54.869Z,9.57
2023-01-06T07:34:22.324Z,9.57
2023-01-06T07:36:50.117Z,9.54
2023-01-06T07:39:17.637Z,9.56
2023-01-06T07:41:45.446Z,9.57
2023-01-06T07:44:12.974Z,9.54
2023-01-06T07:46:40.629Z,9.55
2023-01-06T07:49:09.772Z,9.56
2023-01-06T07:51:37.465Z,9.62
2023-01-06T07:54:05.443Z,9.59
2023-01-06T07:56:33.485Z,9.57
2023-01-06T07:59:01.680Z,9.61
2023-01-06T08:01:29.592Z,9.60
2023-01-06T08:03:57.686Z,9.60
2023-01-06T08:06:26.790Z,9.64
2023-01-06T08:08:54.919Z,9.70
2023-01-06T08:11:23.099Z,9.68
2023-01-06T08:13:50.865Z,9.71
2023-01-06T08:16:18.841Z,9.81
2023-01-06T08:18:46.600Z,9.77
2023-01-06T08:21:14.514Z,9.80
2023-01-06T08:23:43.598Z,9.82
2023-01-06T08:26:13.533Z,9.87
2023-01-06T08:28:41.491Z,9.88
2023-01-06T08:31:10.429Z,9.90
2023-01-06T08:33:37.974Z,10.01
2023-01-06T08:36:07.439Z,9.95
2023-01-06T08:38:36.370Z,9.99
2023-01-06T08:41:05.571Z,9.94
2023-01-06T08:43:33.206Z,9.97
2023-01-06T08:46:01.286Z,9.98
2023-01-06T08:48:29.111Z,10.07
2023-01-06T08:50:56.910Z,10.05
2023-01-06T08:53:24.735Z,10.06
2023-01-06T08:55:52.409Z,10.10
2023-01-06T08:58:21.696Z,10.11
2023-01-06T09:00:49.450Z,10.15
2023-01-06T09:03:16.963Z,10.18
2023-01-06T09:05:44.895Z,10.20
2023-01-06T09:08:12.431Z,10.25
2023-01-06T09:10:40.385Z,10.33
2023-01-06T09:13:08.016Z,10.39
2023-01-06T09:15:40.322Z,10.45
2023-01-06T09:18:08.607Z,10.50
2023-01-06T09:20:36.480Z,10.47
2023-01-06T09:23:04.422Z,10.44
2023-01-06T09:25:31.943Z,10.42
2023-01-06T09:27:59.805Z,10.46
2023-01-06T09:30:27.484Z,10.46
2023-01-06T09:32:56.411Z,10.49
2023-01-06T09:35:24.070Z,10.49
2023-01-06T09:37:51.721Z,10.51
2023-01-06T09:40:20.997Z,10.53
2023-01-06T09:42:55.381Z,10.60
2023-01-06T09:45:31.640Z,10.65
2023-01-06T09:48:02.421Z,10.74
2023-01-06T09:50:32.625Z,10.82
2023-01-06T09:53:03.184Z,10.91
2023-01-06T09:55:33.388Z,11.02
2023-01-06T09:58:04.029Z,11.21
2023-01-06T10:00:36.164Z,11.43
2023-01-06T10:03:05.482Z,11.58
2023-01-06T10:05:37.906Z,11.75
2023-01-06T10:08:11.324Z,11.70
2023-01-06T10:10:46.715Z,11.70
2023-01-06T10:13:24.722Z,11.52
2023-01-06T10:15:59.492Z,11.46
2023-01-06T10:18:33.767Z,11.40
2023-01-06T10:21:07.640Z,11.34
2023-01-06T10:23:46.755Z,11.30
2023-01-06T10:26:15.456Z,11.30
2023-01-06T10:28:44.015Z,11.28
2023-01-06T10:31:13.666Z,11.29
2023-01-06T10:33:44.519Z,11.22
2023-01-06T10:36:13.274Z,11.33
2023-01-06T10:38:42.395Z,11.32
2023-01-06T10:41:14.376Z,11.25
2023-01-06T10:43:41.923Z,11.27
2023-01-06T10:46:09.839Z,11.33
2023-01-06T10:48:37.818Z,11.39
2023-01-06T10:51:21.869Z,11.39
2023-01-06T10:53:49.453Z,11.53
2023-01-06T10:56:18.132Z,11.57
2023-01-06T10:58:47.603Z,11.54
2023-01-06T11:01:18.244Z,11.53
2023-01-06T11:03:47.238Z,11.54
2023-01-06T11:06:19.463Z,11.50
2023-01-06T11:08:47.009Z,11.41
2023-01-06T11:11:27.372Z,11.32
2023-01-06T11:13:56.930Z,11.27
2023-01-06T11:16:26.197Z,11.23
2023-01-06T11:18:54.878Z,11.25
2023-01-06T11:21:24.102Z,11.21
2023-01-06T11:24:10.040Z,11.24
2023-01-06T11:26:44.851Z,11.19
2023-01-06T11:29:18.869Z,11.11
2023-01-06T11:31:48.839Z,11.10
2023-01-06T11:34:22.329Z,11.16
2023-01-06T11:36:51.898Z,11.20
2023-01-06T11:39:26.410Z,11.26
2023-01-06T11:41:55.252Z,11.25
2023-01-06T11:44:27.364Z,11.19
2023-01-06T11:46:58.999Z,11.23
2023-01-06T11:49:29.146Z,11.32
2023-01-06T11:52:03.071Z,11.32
2023-01-06T11:54:35.129Z,11.34
2023-01-06T11:57:17.747Z,11.41
2023-01-06T11:59:49.553Z,11.39
2023-01-06T12:02:22.657Z,11.41
2023-01-06T12:04:52.791Z,11.51
2023-01-06T12:07:26.599Z,11.53
2023-01-06T12:09:55.989Z,11.57
2023-01-06T12:12:26.878Z,11.67
2023-01-06T12:14:55.564Z,11.65
2023-01-06T12:17:32.276Z,11.64
2023-01-06T12:20:02.581Z,11.61
2023-01-06T12:22:38.301Z,11.66
2023-01-06T12:25:08.006Z,11.74
2023-01-06T12:27:38.518Z,11.87
2023-01-06T12:30:09.619Z,11.90
2023-01-06T12:32:39.825Z,11.94
2023-01-06T12:35:12.631Z,11.96
2023-01-06T12:37:43.245Z,11.98
2023-01-06T12:40:16.882Z,11.99
2023-01-06T12:42:48.892Z,12.09
2023-01-06T12:45:18.298Z,12.19
2023-01-06T12:47:47.306Z,12.17
2023-01-06T12:50:18.600Z,12.23
2023-01-06T12:52:49.242Z,12.22
2023-01-06T12:55:17.877Z,12.20
2023-01-06T12:57:49.446Z,12.16
2023-01-06T13:00:22.935Z,12.14
2023-01-06T13:03:17.362Z,12.10
2023-01-06T13:05:53.170Z,12.13
2023-01-06T13:08:26.983Z,12.09
2023-01-06T13:10:58.955Z,12.14
2023-01-06T13:13:41.401Z,12.07
2023-01-06T13:16:15.336Z,12.12
2023-01-06T13:18:47.319Z,12.15
2023-01-06T13:21:17.736Z,12.14
2023-01-06T13:23:54.553Z,12.17
2023-01-06T13:26:40.200Z,12.12
2023-01-06T13:29:14.809Z,12.12
2023-01-06T13:31:49.734Z,12.08
2023-01-06T13:34:34.758Z,12.07
2023-01-06T13:37:12.753Z,12.05
2023-01-06T13:39:42.943Z,11.99
2023-01-06T13:42:15.374Z,12.01
2023-01-06T13:44:44.682Z,11.99
2023-01-06T13:47:13.935Z,11.94
2023-01-06T13:49:42.500Z,11.95
2023-01-06T13:52:15.895Z,11.85
2023-01-06T13:55:04.271Z,11.75
2023-01-06T13:57:33.151Z,11.73
2023-01-06T14:00:15.453Z,11.73
2023-01-06T14:03:16.296Z,11.68
2023-01-06T14:05:51.300Z,11.71
2023-01-06T14:08:20.501Z,11.70
2023-01-06T14:10:55.874Z,11.66
2023-01-06T14:13:25.451Z,11.62
2023-01-06T14:15:55.653Z,11.61
2023-01-06T14:18:37.659Z,11.57
2023-01-06T14:21:07.061Z,11.50
2023-01-06T14:23:35.047Z,11.45
2023-01-06T14:26:04.456Z,11.40
2023-01-06T14:28:33.082Z,11.35
2023-01-06T14:31:19.326Z,11.32
2023-01-06T14:33:46.969Z,11.27
2023-01-06T14:36:15.536Z,11.20
2023-01-06T14:38:44.976Z,11.13
2023-01-06T14:41:19.912Z,11.09
2023-01-06T14:43:52.082Z,11.10
2023-01-06T14:46:20.878Z,11.03
2023-01-06T14:48:53.114Z,11.10
2023-01-06T14:51:22.221Z,11.06
2023-01-06T14:53:52.289Z,11.03
2023-01-06T14:56:22.200Z,10.97
2023-01-06T14:58:49.722Z,10.98
2023-01-06T15:01:24.784Z,11.02
2023-01-06T15:03:56.354Z,10.99
2023-01-06T15:06:25.119Z,10.95
2023-01-06T15:08:52.839Z,10.98
2023-01-06T15:11:26.483Z,10.98
2023-01-06T15:13:54.325Z,10.93
2023-01-06T15:16:31.097Z,10.91
2023-01-06T15:18:59.659Z,10.90
2023-01-06T15:21:28.505Z,10.87
2023-01-06T15:23:56.878Z,10.89
2023-01-06T15:26:27.707Z,10.85
2023-01-06T15:29:02.566Z,10.81
2023-01-06T15:31:32.985Z,10.77
2023-01-06T15:34:01.231Z,10.79
2023-01-06T15:36:28.997Z,10.76
2023-01-06T15:38:58.211Z,10.75
2023-01-06T15:41:37.474Z,10.72
2023-01-06T15:44:21.417Z,10.70
2023-01-06T15:46:50.065Z,10.68
2023-01-06T15:49:22.652Z,10.71
2023-01-06T15:51:53.631Z,10.73
2023-01-06T15:54:21.672Z,10.71
2023-01-06T15:56:50.912Z,10.71
2023-01-06T15:59:19.103Z,10.71
2023-01-06T16:01:52.134Z,10.66
2023-01-06T16:04:21.544Z,10.61
2023-01-06T16:06:49.372Z,10.62
2023-01-06T16:09:30.633Z,10.60
2023-01-06T16:12:08.307Z,10.56
2023-01-06T16:14:37.069Z,10.53
2023-01-06T16:17:06.948Z,10.54
2023-01-06T16:19:35.215Z,10.52
2023-01-06T16:22:05.041Z,10.51
2023-01-06T16:24:33.123Z,10.51
2023-01-06T16:27:03.940Z,10.47
2023-01-06T16:29:33.402Z,10.52
2023-01-06T16:32:19.230Z,10.53
2023-01-06T16:34:51.411Z,10.54
2023-01-06T16:37:19.511Z,10.54
2023-01-06T16:39:47.593Z,10.58
2023-01-06T16:42:42.787Z,10.60
2023-01-06T16:45:14.618Z,10.53
2023-01-06T16:47:42.875Z,10.52
2023-01-06T16:50:18.505Z,10.51
2023-01-06T16:52:48.150Z,10.47
2023-01-06T16:55:19.267Z,10.50
2023-01-06T16:57:50.139Z,10.48
2023-01-06T17:00:19.361Z,10.49
2023-01-06T17:02:47.982Z,10.49
2023-01-06T17:05:21.553Z,10.50
2023-01-06T17:07:49.254Z,10.51
2023-01-06T17:10:17.975Z,10.50
2023-01-06T17:13:00.750Z,10.54
2023-01-06T17:15:29.772Z,10.49
2023-01-06T17:17:57.311Z,10.45
2023-01-06T17:20:25.493Z,10.42
2023-01-06T17:22:53.531Z,10.37
2023-01-06T17:25:21.272Z,10.38
2023-01-06T17:27:49.351Z,10.39
2023-01-06T17:30:19.837Z,10.39
2023-01-06T17:32:49.582Z,10.36
2023-01-06T17:35:25.414Z,10.34
2023-01-06T17:37:52.975Z,10.32
2023-01-06T17:40:29.459Z,10.33
2023-01-06T17:43:02.033Z,10.26
2023-01-06T17:45:29.988Z,10.25
2023-01-06T17:48:00.207Z,10.24
2023-01-06T17:50:29.254Z,10.19
2023-01-06T17:53:27.359Z,10.17
2023-01-06T17:55:55.340Z,10.12
2023-01-06T17:58:28.430Z,10.09
2023-01-06T18:00:56.263Z,10.14
2023-01-06T18:03:25.921Z,10.12
2023-01-06T18:06:05.111Z,10.13
2023-01-06T18:08:33.969Z,10.10
2023-01-06T18:11:08.232Z,10.06
2023-01-06T18:13:37.191Z,10.05
2023-01-06T18:16:07.292Z,10.03
2023-01-06T18:18:37.388Z,10.04
2023-01-06T18:21:06.714Z,10.03
2023-01-06T18:23:35.889Z,10.02
2023-01-06T18:26:08.463Z,9.99
2023-01-06T18:28:36.871Z,10.00
2023-01-06T18:31:04.813Z,10.03
2023-01-06T18:33:32.670Z,10.03
2023-01-06T18:36:02.094Z,10.02
2023-01-06T18:38:31.065Z,10.02
2023-01-06T18:40:59.037Z,10.00
2023-01-06T18:43:28.039Z,10.01
2023-01-06T18:45:57.218Z,10.01
2023-01-06T18:48:28.056Z,10.01
2023-01-06T18:50:57.094Z,10.00
2023-01-06T18:53:28.159Z,9.99
2023-01-06T18:55:57.606Z,10.02
2023-01-06T18:58:37.094Z,10.02
2023-01-06T19:01:13.159Z,10.02
2023-01-06T19:03:42.719Z,10.03
2023-01-06T19:06:28.461Z,10.01
2023-01-06T19:08:57.866Z,10.00
2023-01-06T19:11:26.129Z,10.00
2023-01-06T19:13:55.507Z,9.95
2023-01-06T19:16:26.489Z,9.92
2023-01-06T19:18:56.271Z,9.89
2023-01-06T19:21:24.663Z,9.86
2023-01-06T19:23:52.176Z,9.83
2023-01-06T19:26:26.769Z,9.82
2023-01-06T19:28:59.052Z,9.81
2023-01-06T19:31:26.631Z,9.80
2023-01-06T19:33:57.583Z,9.79
2023-01-06T19:36:43.101Z,9.79
2023-01-06T19:39:21.792Z,9.75
2023-01-06T19:41:53.659Z,9.74
2023-01-06T19:44:24.515Z,9.72
2023-01-06T19:46:52.077Z,9.70
2023-01-06T19:49:20.639Z,9.71
2023-01-06T19:51:49.703Z,9.71
2023-01-06T19:54:24.087Z,9.71
2023-01-06T19:56:54.189Z,9.69
2023-01-06T19:59:25.577Z,9.68
2023-01-06T20:01:57.920Z,9.67
2023-01-06T20:04:26.730Z,9.67
2023-01-06T20:06:54.752Z,9.65
2023-01-06T20:09:22.931Z,9.64
2023-01-06T20:11:51.275Z,9.62
2023-01-06T20:14:21.147Z,9.58
2023-01-06T20:16:49.773Z,9.57
2023-01-06T20:19:17.687Z,9.57
2023-01-06T20:21:45.439Z,9.56
2023-01-06T20:24:14.360Z,9.50
2023-01-06T20:26:42.551Z,9.48
2023-01-06T20:29:10.331Z,9.42
2023-01-06T20:31:39.666Z,9.40
2023-01-06T20:34:07.565Z,9.37
2023-01-06T20:36:35.278Z,9.34
2023-01-06T20:39:03.054Z,9.32
2023-01-06T20:41:30.933Z,9.31
2023-01-06T20:43:58.675Z,9.27
2023-01-06T20:46:26.505Z,9.23
2023-01-06T20:48:55.659Z,9.18
2023-01-06T20:51:23.489Z,9.20
2023-01-06T20:53:51.243Z,9.16
2023-01-06T20:56:18.819Z,9.13
2023-01-06T20:58:46.497Z,9.11
2023-01-06T21:01:14.420Z,9.09
2023-01-06T21:03:42.204Z,9.07
2023-01-06T21:06:11.230Z,9.06
2023-01-06T21:08:39.004Z,9.05
2023-01-06T21:11:06.760Z,9.05
2023-01-06T21:13:34.419Z,9.05
2023-01-06T21:16:02.032Z,9.06
2023-01-06T21:18:29.685Z,9.06
2023-01-06T21:20:57.591Z,9.09
2023-01-06T21:23:26.612Z,9.09
2023-01-06T21:25:54.336Z,9.10
2023-01-06T21:28:22.158Z,9.10
2023-01-06T21:30:49.912Z,9.12
2023-01-06T21:33:18.565Z,9.11
2023-01-06T21:35:47.507Z,9.12
2023-01-06T21:38:15.087Z,9.11
2023-01-06T21:40:44.114Z,9.11
2023-01-06T21:43:10.744Z,9.10
2023-01-06T21:45:39.183Z,9.09
2023-01-06T21:48:07.417Z,9.10
2023-01-06T21:50:38.181Z,9.11
2023-01-06T21:53:06.024Z,9.13
2023-01-06T21:55:33.810Z,9.14
2023-01-06T21:58:03.025Z,9.14
2023-01-06T22:00:30.648Z,9.14
2023-01-06T22:02:58.350Z,9.15
2023-01-06T22:05:26.044Z,9.16
2023-01-06T22:07:54.208Z,9.18
2023-01-06T22:10:22.878Z,9.17
2023-01-06T22:12:52.868Z,9.15
2023-01-06T22:15:22.567Z,9.17
2023-01-06T22:17:50.732Z,9.20
2023-01-06T22:20:18.914Z,9.19
2023-01-06T22:22:47.453Z,9.20
2023-01-06T22:25:15.088Z,9.20
2023-01-06T22:27:42.709Z,9.23
2023-01-06T22:30:10.794Z,9.20
2023-01-06T22:32:44.476Z,9.20
2023-01-06T22:35:12.569Z,9.18
2023-01-06T22:37:40.315Z,9.18
2023-01-06T22:40:08.593Z,9.18
2023-01-06T22:42:36.278Z,9.17
2023-01-06T22:45:04.582Z,9.18
2023-01-06T22:47:32.511Z,9.18
2023-01-06T22:50:02.122Z,9.17
2023-01-06T22:52:29.726Z,9.16
2023-01-06T22:54:57.424Z,9.14
2023-01-06T22:57:25.155Z,9.15
2023-01-06T22:59:52.768Z,9.15
2023-01-06T23:02:20.652Z,9.13
2023-01-06T23:04:48.423Z,9.13
2023-01-06T23:07:17.440Z,9.11
2023-01-06T23:09:45.184Z,9.11
2023-01-06T23:12:12.819Z,9.11
2023-01-06T23:14:40.391Z,9.10
2023-01-06T23:17:08.009Z,9.09
2023-01-06T23:19:35.708Z,9.07
2023-01-06T23:22:03.350Z,9.08
2023-01-06T23:24:32.408Z,9.07
2023-01-06T23:27:00.871Z,9.08
2023-01-06T23:29:28.537Z,9.07
2023-01-06T23:31:56.212Z,9.08
2023-01-06T23:34:23.809Z,9.08
2023-01-06T23:36:51.419Z,9.07
2023-01-06T23:39:19.129Z,9.05
2023-01-06T23:41:48.503Z,9.06
2023-01-06T23:44:16.798Z,9.08
2023-01-06T23:46:44.816Z,9.07
2023-01-06T23:49:13.551Z,9.07
2023-01-06T23:51:41.586Z,9.06
2023-01-06T23:54:09.362Z,9.07
2023-01-06T23:56:37.648Z,9.05
2023-01-06T23:59:07.222Z,9.07
